createdAt,value
2022-11-26T00:03:59.568Z,43.4
2022-11-26T00:09:00.051Z,43.4
2022-11-26T00:14:00.584Z,43.3
2022-11-26T00:19:01.105Z,43.3
2022-11-26T00:24:01.600Z,43.2
2022-11-26T00:29:02.113Z,43.2
2022-11-26T00:34:02.617Z,43.1
2022-11-26T00:39:03.092Z,43.1
2022-11-26T00:44:03.617Z,43
2022-11-26T00:49:04.147Z,43
2022-11-26T00:54:04.874Z,42.9
2022-11-26T00:59:05.388Z,42.9
2022-11-26T01:04:06.131Z,42.8
2022-11-26T01:09:06.616Z,42.7
2022-11-26T01:14:07.114Z,42.7
2022-11-26T01:19:07.583Z,42.7
2022-11-26T01:24:08.064Z,42.6
2022-11-26T01:29:08.555Z,42.6
2022-11-26T01:34:09.050Z,42.6
2022-11-26T01:39:09.555Z,42.5
2022-11-26T01:44:10.042Z,42.4
2022-11-26T01:49:10.540Z,42.4
2022-11-26T01:54:11.032Z,42.4
2022-11-26T01:59:11.759Z,42.3
2022-11-26T02:04:12.209Z,42.2
2022-11-26T02:09:12.705Z,42.2
2022-11-26T02:14:13.176Z,42.2
2022-11-26T02:19:13.649Z,42.1
2022-11-26T02:24:14.101Z,42.1
2022-11-26T02:29:14.580Z,42.1
2022-11-26T02:34:15.057Z,42
2022-11-26T02:44:21.699Z,41.9
2022-11-26T02:49:22.136Z,41.9
2022-11-26T02:54:22.570Z,41.8
2022-11-26T02:59:22.989Z,41.8
2022-11-26T03:04:23.548Z,41.7
2022-11-26T03:09:24.057Z,41.7
2022-11-26T03:14:24.469Z,41.6
2022-11-26T03:19:24.917Z,41.6
2022-11-26T03:24:25.361Z,41.6
2022-11-26T03:29:25.808Z,41.6
2022-11-26T03:34:26.223Z,41.5
2022-11-26T03:39:26.635Z,41.4
2022-11-26T03:44:27.094Z,41.4
2022-11-26T03:49:27.522Z,41.4
2022-11-26T03:54:27.950Z,41.3
2022-11-26T03:59:28.346Z,41.2
2022-11-26T04:04:28.844Z,41.2
2022-11-26T04:09:29.261Z,41.2
2022-11-26T04:14:29.690Z,41.2
2022-11-26T04:19:30.100Z,41.1
2022-11-26T04:24:30.535Z,41.1
2022-11-26T04:29:30.960Z,41.1
2022-11-26T04:34:31.385Z,41
2022-11-26T04:39:31.803Z,40.9
2022-11-26T04:44:32.262Z,40.9
2022-11-26T04:49:32.677Z,40.9
2022-11-26T04:54:33.198Z,40.8
2022-11-26T04:59:33.661Z,40.8
2022-11-26T05:04:34.111Z,40.8
2022-11-26T05:09:34.537Z,40.8
2022-11-26T05:14:35.043Z,40.7
2022-11-26T05:19:35.541Z,40.6
2022-11-26T05:24:36.524Z,40.6
2022-11-26T05:29:37.147Z,40.6
2022-11-26T05:34:37.791Z,40.5
2022-11-26T05:39:38.381Z,40.5
2022-11-26T05:44:39.251Z,40.4
2022-11-26T05:49:39.855Z,40.4
2022-11-26T05:54:40.562Z,40.4
2022-11-26T05:59:41.127Z,40.3
2022-11-26T06:04:41.810Z,40.3
2022-11-26T06:09:42.348Z,40.2
2022-11-26T06:14:43.471Z,40.2
2022-11-26T06:19:44.094Z,40.2
2022-11-26T06:24:44.507Z,40.2
2022-11-26T06:29:44.946Z,40.1
2022-11-26T06:34:47.632Z,40.1
2022-11-26T06:39:50.226Z,40.1
2022-11-26T06:44:50.688Z,40
2022-11-26T06:49:51.119Z,40
2022-11-26T06:54:51.555Z,39.9
2022-11-26T06:59:51.989Z,39.9
2022-11-26T07:04:52.665Z,39.9
2022-11-26T07:09:53.076Z,39.8
2022-11-26T07:14:53.736Z,39.8
2022-11-26T07:19:54.401Z,39.7
2022-11-26T07:24:54.843Z,39.7
2022-11-26T07:29:55.214Z,39.7
2022-11-26T07:34:55.615Z,39.7
2022-11-26T07:39:56.297Z,39.6
2022-11-26T07:44:56.745Z,39.6
2022-11-26T07:49:57.177Z,39.6
2022-11-26T07:54:57.611Z,39.5
2022-11-26T07:59:58.027Z,39.5
2022-11-26T08:04:58.439Z,39.4
2022-11-26T08:09:58.848Z,39.4
2022-11-26T08:14:59.262Z,39.4
2022-11-26T08:19:59.697Z,39.3
2022-11-26T08:25:00.099Z,39.3
2022-11-26T08:30:00.552Z,39.3
2022-11-26T08:35:00.915Z,39.2
2022-11-26T08:40:01.360Z,39.2
2022-11-26T08:45:01.749Z,39.2
2022-11-26T08:50:02.605Z,39.2
2022-11-26T08:55:02.998Z,39.1
2022-11-26T09:00:04.513Z,39.1
2022-11-26T09:05:05.782Z,39.1
2022-11-26T09:10:07.005Z,39
2022-11-26T09:15:08.306Z,39
2022-11-26T09:20:08.808Z,38.9
2022-11-26T09:25:10.048Z,38.9
2022-11-26T09:30:11.560Z,38.8
2022-11-26T09:35:11.957Z,38.8
2022-11-26T09:40:12.346Z,38.7
2022-11-26T09:45:12.767Z,38.7
2022-11-26T09:50:13.245Z,38.7
2022-11-26T09:55:13.867Z,38.6
2022-11-26T10:00:14.289Z,38.6
2022-11-26T10:05:19.888Z,38.6
2022-11-26T10:10:21.671Z,38.5
2022-11-26T10:15:22.100Z,38.5
2022-11-26T10:20:22.522Z,38.4
2022-11-26T10:25:22.918Z,38.4
2022-11-26T10:30:23.294Z,38.4
2022-11-26T10:35:23.684Z,38.4
2022-11-26T10:40:24.101Z,38.3
2022-11-26T10:45:24.496Z,38.3
2022-11-26T10:50:46.972Z,38.2
2022-11-26T10:55:48.021Z,38.2
2022-11-26T11:00:48.525Z,38.2
2022-11-26T11:05:49.115Z,38.2
2022-11-26T11:10:49.483Z,38.1
2022-11-26T11:15:49.910Z,38
2022-11-26T11:20:50.245Z,37.9
2022-11-26T11:25:50.607Z,37.8
2022-11-26T11:30:50.947Z,37.7
2022-11-26T11:35:51.296Z,37.7
2022-11-26T11:40:51.624Z,37.7
2022-11-26T11:45:53.377Z,37.7
2022-11-26T11:50:53.947Z,37.7
2022-11-26T11:55:58.136Z,37.6
2022-11-26T12:01:01.381Z,37.6
2022-11-26T12:06:01.712Z,37.6
2022-11-26T12:11:02.059Z,37.6
2022-11-26T12:16:02.613Z,37.5
2022-11-26T12:21:02.923Z,37.5
2022-11-26T12:26:03.235Z,37.4
2022-11-26T12:31:03.578Z,37.2
2022-11-26T12:36:03.875Z,37.1
2022-11-26T12:41:04.171Z,37.1
2022-11-26T12:46:04.474Z,37.1
2022-11-26T12:51:04.862Z,37.1
2022-11-26T12:56:05.392Z,37
2022-11-26T13:01:05.806Z,37
2022-11-26T13:06:06.147Z,36.9
2022-11-26T13:11:09.847Z,36.9
2022-11-26T13:16:10.500Z,36.9
2022-11-26T13:21:10.912Z,36.9
2022-11-26T13:26:11.289Z,36.8
2022-11-26T13:31:11.695Z,36.8
2022-11-26T13:36:12.071Z,36.7
2022-11-26T13:41:12.378Z,36.7
2022-11-26T13:46:14.612Z,36.7
2022-11-26T13:51:18.062Z,36.7
2022-11-26T13:56:18.411Z,36.7
2022-11-26T14:01:18.745Z,36.6
2022-11-26T14:06:19.133Z,36.6
2022-11-26T14:11:22.398Z,36.6
2022-11-26T14:16:23.766Z,36.6
2022-11-26T14:21:24.192Z,36.6
2022-11-26T14:26:24.760Z,36.6
2022-11-26T14:31:25.205Z,36.5
2022-11-26T14:36:25.579Z,36.1
2022-11-26T14:41:25.886Z,36.1
2022-11-26T14:46:26.224Z,36
2022-11-26T14:51:26.941Z,36
2022-11-26T14:56:27.241Z,36
2022-11-26T15:01:27.553Z,35.9
2022-11-26T15:06:27.879Z,35.4
2022-11-26T15:11:28.169Z,35.2
2022-11-26T15:16:28.536Z,35.2
2022-11-26T15:21:29.073Z,35.1
2022-11-26T15:26:29.422Z,35.1
2022-11-26T15:31:29.760Z,35.1
2022-11-26T15:36:30.120Z,35.1
2022-11-26T15:41:30.395Z,35
2022-11-26T15:46:30.938Z,35
2022-11-26T15:51:35.390Z,35
2022-11-26T15:56:36.229Z,34.9
2022-11-26T16:01:36.588Z,34.9
2022-11-26T16:06:36.986Z,34.9
2022-11-26T16:11:37.485Z,34.9
2022-11-26T16:16:37.789Z,34.9
2022-11-26T16:21:38.084Z,34.9
2022-11-26T16:26:38.347Z,34.8
2022-11-26T16:31:38.594Z,34.8
2022-11-26T16:36:38.891Z,34.8
2022-11-26T16:41:39.161Z,34.7
2022-11-26T16:46:39.544Z,36.6
2022-11-26T16:51:40.037Z,39.1
2022-11-26T16:56:40.475Z,41.6
2022-11-26T17:01:40.971Z,44.2
2022-11-26T17:06:41.574Z,45.8
2022-11-26T17:11:42.208Z,45.9
2022-11-26T17:16:42.899Z,45.9
2022-11-26T17:21:43.532Z,45.9
2022-11-26T17:26:44.393Z,45.9
2022-11-26T17:31:45.056Z,45.9
2022-11-26T17:36:45.864Z,45.9
2022-11-26T17:41:46.509Z,45.8
2022-11-26T17:47:09.428Z,46.9
2022-11-26T17:52:16.438Z,47.1
2022-11-26T17:57:17.090Z,47.3
2022-11-26T18:02:17.782Z,47.3
2022-11-26T18:07:18.502Z,47.2
2022-11-26T18:12:24.562Z,47.2
2022-11-26T18:17:25.279Z,47.2
2022-11-26T18:22:25.900Z,47.2
2022-11-26T18:27:26.524Z,47.1
2022-11-26T18:32:27.202Z,47
2022-11-26T18:37:27.804Z,46.9
2022-11-26T18:42:36.927Z,46.9
2022-11-26T18:47:38.153Z,46.9
2022-11-26T18:52:38.788Z,46.8
2022-11-26T18:57:39.441Z,46.8
2022-11-26T19:02:40.146Z,46.7
2022-11-26T19:07:40.874Z,46.7
2022-11-26T19:12:41.588Z,46.7
2022-11-26T19:17:42.233Z,46.6
2022-11-26T19:22:42.842Z,46.6
2022-11-26T19:27:44.361Z,46.6
2022-11-26T19:32:44.982Z,46.5
2022-11-26T19:37:45.603Z,46.4
2022-11-26T19:42:46.480Z,46.4
2022-11-26T19:47:47.398Z,46.4
2022-11-26T19:52:48.284Z,46.3
2022-11-26T19:57:48.908Z,46.3
2022-11-26T20:02:49.562Z,46.2
2022-11-26T20:07:50.379Z,46.2
2022-11-26T20:12:51.039Z,46.1
2022-11-26T20:17:51.641Z,46.1
2022-11-26T20:22:52.284Z,46.1
2022-11-26T20:27:53.126Z,46
2022-11-26T20:32:53.917Z,43.8
2022-11-26T20:37:54.439Z,42.9
2022-11-26T20:42:54.918Z,42.7
2022-11-26T20:47:55.397Z,42.6
2022-11-26T20:52:55.889Z,42.3
2022-11-26T20:57:56.366Z,42.1
2022-11-26T21:02:57.237Z,42
2022-11-26T21:07:57.862Z,41.9
2022-11-26T21:12:58.383Z,41.8
2022-11-26T21:17:59.112Z,41.7
2022-11-26T21:22:59.632Z,41.6
2022-11-26T21:28:00.046Z,41.6
2022-11-26T21:33:02.212Z,41.4
2022-11-26T21:38:04.959Z,41.4
2022-11-26T21:43:05.389Z,41.2
2022-11-26T21:48:06.040Z,41.2
2022-11-26T21:53:06.448Z,41.1
2022-11-26T21:58:06.863Z,41.1
2022-11-26T22:03:11.364Z,41
2022-11-26T22:08:12.085Z,40.9
2022-11-26T22:13:12.754Z,40.8
2022-11-26T22:18:13.198Z,40.8
2022-11-26T22:23:13.620Z,40.7
2022-11-26T22:28:14.288Z,40.6
2022-11-26T22:33:14.742Z,40.6
2022-11-26T22:38:15.166Z,40.5
2022-11-26T22:43:16.417Z,40.4
2022-11-26T22:48:16.817Z,40.4
2022-11-26T22:53:17.177Z,40.3
2022-11-26T22:58:17.546Z,40.2
2022-11-26T23:03:18.004Z,40.2
2022-11-26T23:08:18.648Z,40.1
2022-11-26T23:13:19.223Z,40.1
2022-11-26T23:18:19.785Z,40
2022-11-26T23:23:20.361Z,39.9
2022-11-26T23:28:20.958Z,39.9
2022-11-26T23:33:21.468Z,39.8
2022-11-26T23:38:21.800Z,39.7
2022-11-26T23:43:22.129Z,39.7
2022-11-26T23:48:22.460Z,39.6
2022-11-26T23:53:23.012Z,39.6
2022-11-26T23:58:23.341Z,39.5
